Time;durP1;ratioP1;P1;durP2;ratioP2;P2;SDS_P1;SDS_P2;PMS_P1;PMS_P2;Temp;Humidity;BMP_temperature;BMP_pressure;BME280_temperature;BME280_humidity;BME280_pressure;Samples;Min_cycle;Max_cycle;Signal;HPM_P1;HPM_P2
2022/09/29 00:00:28;;;;;;;4.03;1.23;;;9.40;75.70;;;;;;5071591;28;20033;-76
2022/09/29 00:02:53;;;;;;;1.35;0.93;;;9.30;75.80;;;;;;5053288;28;20063;-76
2022/09/29 00:05:19;;;;;;;1.65;1.15;;;9.30;75.80;;;;;;5054756;28;20383;-77
2022/09/29 00:07:44;;;;;;;1.73;1.20;;;9.30;75.70;;;;;;5060635;28;20025;-70
2022/09/29 00:10:10;;;;;;;2.35;1.52;;;9.30;75.80;;;;;;5045072;28;20388;-76
2022/09/29 00:12:36;;;;;;;1.80;1.25;;;9.30;75.80;;;;;;5064911;28;20380;-70
2022/09/29 00:15:02;;;;;;;1.98;1.52;;;9.20;75.70;;;;;;5066982;28;20435;-70
2022/09/29 00:17:28;;;;;;;1.80;0.80;;;9.20;75.80;;;;;;5062718;28;20484;-70
2022/09/29 00:19:53;;;;;;;1.15;1.00;;;9.20;75.80;;;;;;5070032;28;20028;-69
2022/09/29 00:22:19;;;;;;;5.03;1.33;;;9.10;75.80;;;;;;5032441;28;20033;-77
2022/09/29 00:24:48;;;;;;;1.13;1.02;;;9.10;75.80;;;;;;5063135;28;20348;-76
2022/09/29 00:27:15;;;;;;;1.45;0.98;;;9.20;75.90;;;;;;5047623;28;20037;-77
2022/09/29 00:29:41;;;;;;;0.95;0.90;;;9.20;76.00;;;;;;5068368;28;20059;-70
2022/09/29 00:32:06;;;;;;;2.97;1.27;;;9.10;75.90;;;;;;5063077;28;20435;-76
2022/09/29 00:34:32;;;;;;;1.30;1.20;;;9.10;75.80;;;;;;5036762;28;20040;-77
2022/09/29 00:36:58;;;;;;;1.50;1.10;;;9.10;75.90;;;;;;5070658;28;20039;-69
2022/09/29 00:39:23;;;;;;;1.25;1.15;;;9.10;76.00;;;;;;5053259;28;20037;-70
2022/09/29 00:41:49;;;;;;;1.65;1.40;;;9.10;76.00;;;;;;5052850;28;20150;-76
2022/09/29 00:44:15;;;;;;;1.63;1.38;;;9.00;75.90;;;;;;5068725;28;20373;-76
2022/09/29 00:47:01;;;;;;;1.95;1.38;;;9.00;75.90;;;;;;5070492;28;20055;-76
2022/09/29 00:49:51;;;;;;;1.40;1.30;;;9.00;75.90;;;;;;5070248;28;20020;-76
2022/09/29 00:52:25;;;;;;;1.52;1.15;;;8.90;76.00;;;;;;5067602;28;20052;-76
2022/09/29 00:54:58;;;;;;;2.15;1.50;;;8.90;76.10;;;;;;5068895;28;20070;-69
2022/09/29 00:57:30;;;;;;;1.38;1.20;;;8.90;76.20;;;;;;5043737;28;20047;-76
2022/09/29 01:00:03;;;;;;;1.13;1.03;;;8.90;76.20;;;;;;5065495;28;20029;-76
2022/09/29 01:02:32;;;;;;;1.65;1.30;;;8.90;76.10;;;;;;5068789;28;20415;-70
2022/09/29 01:04:59;;;;;;;6.18;1.67;;;8.90;76.00;;;;;;5067724;28;20380;-69
2022/09/29 01:07:26;;;;;;;2.15;1.55;;;8.80;76.00;;;;;;5068838;28;20036;-77
2022/09/29 01:09:57;;;;;;;1.73;1.00;;;8.80;76.00;;;;;;5050771;28;20413;-76
2022/09/29 01:12:23;;;;;;;1.80;0.85;;;8.80;76.00;;;;;;5058415;28;20020;-76
2022/09/29 01:14:51;;;;;;;2.40;1.38;;;8.80;76.10;;;;;;5054994;28;20040;-76
2022/09/29 01:17:17;;;;;;;1.85;1.65;;;8.80;76.00;;;;;;5035309;28;20024;-69
2022/09/29 01:20:12;;;;;;;2.75;1.85;;;8.70;76.10;;;;;;5069812;28;20048;-70
2022/09/29 01:23:15;;;;;;;2.08;1.58;;;8.80;76.10;;;;;;5056983;28;20033;-69
2022/09/29 01:25:55;;;;;;;2.00;1.70;;;8.70;76.10;;;;;;5067247;28;20032;-70
2022/09/29 01:28:44;;;;;;;3.63;1.73;;;8.70;76.20;;;;;;5068150;28;20094;-76
2022/09/29 01:31:40;;;;;;;1.98;1.30;;;8.70;76.10;;;;;;5069188;28;20123;-76
2022/09/29 01:34:35;;;;;;;3.63;1.70;;;8.70;76.20;;;;;;5048973;28;20356;-75
2022/09/29 01:37:08;;;;;;;1.90;1.35;;;8.70;76.30;;;;;;5063172;28;20128;-76
2022/09/29 01:39:40;;;;;;;1.55;1.45;;;8.60;76.30;;;;;;5068151;28;20036;-76
2022/09/29 01:42:16;;;;;;;1.90;1.48;;;8.60;76.30;;;;;;5069962;28;20035;-70
2022/09/29 01:44:49;;;;;;;2.72;1.90;;;8.60;76.30;;;;;;5070236;28;20032;-70
2022/09/29 01:47:36;;;;;;;4.70;1.90;;;8.60;76.20;;;;;;5067797;28;20162;-76
2022/09/29 01:50:12;;;;;;;4.68;1.92;;;8.60;76.20;;;;;;5068168;28;20116;-76
2022/09/29 01:52:43;;;;;;;2.80;1.58;;;8.60;76.30;;;;;;5051453;28;20576;-76
2022/09/29 01:55:20;;;;;;;1.70;1.60;;;8.60;76.40;;;;;;5068814;28;20024;-76
2022/09/29 01:58:00;;;;;;;2.97;2.10;;;8.50;76.20;;;;;;5052284;28;20021;-69
2022/09/29 02:00:31;;;;;;;2.60;1.80;;;8.50;76.40;;;;;;5063715;28;20030;-70
2022/09/29 02:03:24;;;;;;;1.90;1.30;;;8.50;76.50;;;;;;5068543;28;20392;-70
2022/09/29 02:06:03;;;;;;;2.47;1.60;;;8.50;76.40;;;;;;5065208;28;20029;-76
2022/09/29 02:08:36;;;;;;;2.42;1.80;;;8.50;76.40;;;;;;5067962;28;20035;-76
2022/09/29 02:11:05;;;;;;;2.30;1.80;;;8.40;76.40;;;;;;5062138;28;20028;-69
2022/09/29 02:13:45;;;;;;;5.85;1.80;;;8.40;76.50;;;;;;5049968;28;20543;-69
2022/09/29 02:16:16;;;;;;;2.17;1.75;;;8.40;76.60;;;;;;5066738;28;20380;-75
2022/09/29 02:18:47;;;;;;;2.55;1.23;;;8.40;76.50;;;;;;5050101;28;20028;-75
2022/09/29 02:21:13;;;;;;;1.20;1.08;;;8.40;76.50;;;;;;5040799;28;20028;-70
2022/09/29 02:23:38;;;;;;;3.10;2.03;;;8.40;76.40;;;;;;5065577;28;20047;-70
2022/09/29 02:26:05;;;;;;;1.77;1.63;;;8.40;76.50;;;;;;5069041;28;20028;-71
2022/09/29 02:28:30;;;;;;;1.38;1.27;;;8.30;76.50;;;;;;5050976;28;20024;-70
2022/09/29 02:30:56;;;;;;;2.83;1.58;;;8.30;76.40;;;;;;5048650;28;20039;-70
2022/09/29 02:33:24;;;;;;;1.73;1.63;;;8.30;76.40;;;;;;5050206;28;20028;-77
2022/09/29 02:36:17;;;;;;;2.38;1.80;;;8.30;76.40;;;;;;5068155;28;20025;-71
2022/09/29 02:39:08;;;;;;;2.38;1.50;;;8.30;76.40;;;;;;5068661;28;20036;-70
2022/09/29 02:41:52;;;;;;;1.95;1.25;;;8.30;76.40;;;;;;5050391;28;20035;-70
2022/09/29 02:44:45;;;;;;;1.50;1.40;;;8.30;76.50;;;;;;5066660;28;20032;-70
2022/09/29 02:47:13;;;;;;;1.38;1.27;;;8.30;76.40;;;;;;5068016;28;20052;-77
2022/09/29 02:49:58;;;;;;;2.47;1.73;;;8.20;76.60;;;;;;5052825;28;20127;-77
2022/09/29 02:52:30;;;;;;;1.67;1.52;;;8.20;76.50;;;;;;5065866;28;20089;-77
2022/09/29 02:55:08;;;;;;;1.30;1.20;;;8.20;76.60;;;;;;5066658;28;20102;-77
2022/09/29 02:57:58;;;;;;;1.77;1.67;;;8.20;76.60;;;;;;5067246;28;20037;-71
2022/09/29 03:00:25;;;;;;;1.17;1.08;;;8.10;76.60;;;;;;5037950;28;20638;-77
2022/09/29 03:02:51;;;;;;;1.55;1.30;;;8.10;76.70;;;;;;5049422;28;20044;-71
2022/09/29 03:05:22;;;;;;;2.03;1.83;;;8.10;76.70;;;;;;5068099;28;20033;-71
2022/09/29 03:07:48;;;;;;;2.42;1.33;;;8.10;76.70;;;;;;5068222;28;20119;-70
2022/09/29 03:10:16;;;;;;;2.97;1.40;;;8.10;76.70;;;;;;5067799;28;20098;-71
2022/09/29 03:12:41;;;;;;;1.42;1.33;;;8.10;76.70;;;;;;5065641;28;20479;-77
2022/09/29 03:15:08;;;;;;;1.73;1.58;;;8.00;76.70;;;;;;5067668;28;20308;-70
2022/09/29 03:17:34;;;;;;;2.67;2.25;;;8.00;76.70;;;;;;5033456;28;20499;-71
2022/09/29 03:20:00;;;;;;;1.60;1.35;;;8.00;76.90;;;;;;5046604;28;20155;-77
2022/09/29 03:22:26;;;;;;;2.13;1.40;;;8.10;76.90;;;;;;5047835;28;20033;-77
2022/09/29 03:24:52;;;;;;;2.17;1.75;;;8.10;76.80;;;;;;5045952;28;20395;-77
2022/09/29 03:27:17;;;;;;;1.63;1.52;;;8.00;76.70;;;;;;5046605;28;20036;-76
2022/09/29 03:29:43;;;;;;;2.35;1.60;;;8.00;76.70;;;;;;5060316;28;20029;-71
2022/09/29 03:32:09;;;;;;;2.25;1.45;;;8.00;76.80;;;;;;5067351;28;20029;-71
2022/09/29 03:34:35;;;;;;;2.67;1.58;;;8.00;76.80;;;;;;5067859;28;20065;-70
2022/09/29 03:37:01;;;;;;;1.73;1.20;;;8.00;76.70;;;;;;5044142;28;20104;-70
2022/09/29 03:39:27;;;;;;;1.50;1.40;;;8.00;76.70;;;;;;5045286;28;20037;-70
2022/09/29 03:41:53;;;;;;;2.28;1.70;;;8.00;76.80;;;;;;5066178;28;20032;-70
2022/09/29 03:44:19;;;;;;;2.30;1.80;;;8.00;76.80;;;;;;5067657;28;20032;-77
2022/09/29 03:46:46;;;;;;;2.28;1.52;;;8.00;76.90;;;;;;5047255;28;20048;-77
2022/09/29 03:49:13;;;;;;;1.42;1.20;;;8.00;76.90;;;;;;5064104;28;20028;-77
2022/09/29 03:51:39;;;;;;;1.55;1.45;;;8.00;76.90;;;;;;5066274;28;20020;-77
2022/09/29 03:54:05;;;;;;;2.67;2.22;;;8.00;76.80;;;;;;5030606;28;20040;-77
2022/09/29 03:56:31;;;;;;;2.08;1.48;;;8.00;76.80;;;;;;5043654;28;20115;-71
2022/09/29 03:58:57;;;;;;;2.45;1.50;;;8.00;77.00;;;;;;5039292;28;20120;-78
2022/09/29 04:01:23;;;;;;;2.90;1.60;;;8.00;77.00;;;;;;5065843;28;20107;-70
2022/09/29 04:03:48;;;;;;;2.50;1.80;;;8.00;77.00;;;;;;5065963;28;20114;-71
2022/09/29 04:06:14;;;;;;;3.10;1.60;;;8.00;77.10;;;;;;5064742;28;20062;-70
2022/09/29 04:08:40;;;;;;;1.83;1.70;;;8.00;77.00;;;;;;5067303;28;20445;-70
2022/09/29 04:11:06;;;;;;;3.72;2.28;;;8.00;77.00;;;;;;5049068;28;20055;-71
2022/09/29 04:13:32;;;;;;;1.75;1.60;;;8.00;77.10;;;;;;5067319;28;20025;-71
2022/09/29 04:15:59;;;;;;;1.80;1.63;;;7.90;77.10;;;;;;5067827;28;20017;-70
2022/09/29 04:18:25;;;;;;;2.10;1.90;;;7.90;77.10;;;;;;5064443;28;20090;-70
2022/09/29 04:20:50;;;;;;;4.38;2.13;;;7.90;77.10;;;;;;5047936;28;20032;-71
2022/09/29 04:23:17;;;;;;;2.92;1.95;;;7.90;77.10;;;;;;5065642;28;20091;-70
2022/09/29 04:25:44;;;;;;;4.85;2.35;;;7.90;77.10;;;;;;5048000;28;20036;-70
2022/09/29 04:28:11;;;;;;;5.05;2.17;;;7.90;77.10;;;;;;5050275;28;20567;-71
2022/09/29 04:30:37;;;;;;;2.30;1.75;;;7.90;77.20;;;;;;5068622;28;20624;-70
2022/09/29 04:33:03;;;;;;;4.40;2.70;;;7.90;77.30;;;;;;5048016;28;20058;-71
2022/09/29 04:35:29;;;;;;;3.58;2.58;;;7.90;77.40;;;;;;5066175;28;20040;-77
2022/09/29 04:37:58;;;;;;;3.20;2.25;;;8.00;77.50;;;;;;5070401;28;20056;-77
2022/09/29 04:40:25;;;;;;;2.55;2.10;;;8.00;77.50;;;;;;5048875;28;20658;-77
2022/09/29 04:42:51;;;;;;;2.28;1.77;;;8.00;77.50;;;;;;5046667;28;20094;-76
2022/09/29 04:45:16;;;;;;;3.97;2.88;;;8.00;77.70;;;;;;5049658;28;20036;-75
2022/09/29 04:47:42;;;;;;;3.33;2.05;;;8.00;77.70;;;;;;5049325;28;20032;-76
2022/09/29 04:50:08;;;;;;;2.03;1.85;;;8.10;78.00;;;;;;5063886;28;20403;-76
2022/09/29 04:52:35;;;;;;;7.05;2.17;;;8.10;77.90;;;;;;5063364;28;20024;-76
2022/09/29 04:55:03;;;;;;;4.10;2.40;;;8.10;77.90;;;;;;5067810;28;20051;-76
2022/09/29 04:57:29;;;;;;;17.55;2.78;;;8.20;78.20;;;;;;5068291;28;20028;-75
2022/09/29 04:59:55;;;;;;;4.30;2.58;;;8.20;78.30;;;;;;5068890;28;20502;-75
2022/09/29 05:02:21;;;;;;;15.52;2.60;;;8.20;78.40;;;;;;5068821;28;20040;-76
2022/09/29 05:04:47;;;;;;;4.10;2.42;;;8.20;78.50;;;;;;5068333;28;20775;-76
2022/09/29 05:07:13;;;;;;;2.92;2.05;;;8.20;78.70;;;;;;5047710;28;20020;-76
2022/09/29 05:09:39;;;;;;;51.22;2.45;;;8.20;78.90;;;;;;5060294;28;20662;-75
2022/09/29 05:12:05;;;;;;;2.67;2.10;;;8.20;79.10;;;;;;5068405;28;20013;-70
2022/09/29 05:14:31;;;;;;;1.63;1.50;;;8.10;79.30;;;;;;5050280;28;20036;-70
2022/09/29 05:16:57;;;;;;;4.53;1.33;;;8.20;79.50;;;;;;5064409;28;20488;-76
2022/09/29 05:19:23;;;;;;;5.03;1.80;;;8.20;79.60;;;;;;5048886;28;20589;-70
2022/09/29 05:21:49;;;;;;;4.65;2.33;;;8.20;79.60;;;;;;5048027;28;20160;-75
2022/09/29 05:24:14;;;;;;;7.97;2.22;;;8.30;79.70;;;;;;5064912;28;20068;-71
2022/09/29 05:26:40;;;;;;;1.40;1.30;;;8.30;79.70;;;;;;5067681;28;20317;-76
2022/09/29 05:29:06;;;;;;;3.72;1.70;;;8.30;79.80;;;;;;5070293;28;20023;-75
2022/09/29 05:31:32;;;;;;;18.95;1.70;;;8.30;79.80;;;;;;5067641;28;20029;-76
2022/09/29 05:33:57;;;;;;;6.10;2.38;;;8.40;80.00;;;;;;5051170;28;20038;-75
2022/09/29 05:36:23;;;;;;;4.38;2.40;;;8.30;80.00;;;;;;5059396;28;20029;-70
2022/09/29 05:38:49;;;;;;;3.10;2.03;;;8.30;80.30;;;;;;5049838;28;20033;-70
2022/09/29 05:41:21;;;;;;;3.00;2.17;;;8.30;80.40;;;;;;5069351;28;20111;-70
2022/09/29 05:43:52;;;;;;;2.10;1.67;;;8.30;80.30;;;;;;5051798;28;20055;-70
2022/09/29 05:46:18;;;;;;;14.05;2.78;;;8.40;80.50;;;;;;5062143;28;20067;-75
2022/09/29 05:48:50;;;;;;;3.00;1.70;;;8.40;80.60;;;;;;5063646;28;20040;-70
2022/09/29 05:51:18;;;;;;;1.77;1.52;;;8.40;80.50;;;;;;5068484;28;20484;-70
2022/09/29 05:53:46;;;;;;;2.33;2.13;;;8.40;80.50;;;;;;5069275;28;20048;-70
2022/09/29 05:56:20;;;;;;;2.17;1.67;;;8.40;80.70;;;;;;5069548;28;20032;-70
2022/09/29 05:58:46;;;;;;;2.58;2.13;;;8.40;80.70;;;;;;5051016;28;20446;-70
2022/09/29 06:01:18;;;;;;;2.40;1.88;;;8.40;80.80;;;;;;5049207;28;20115;-69
2022/09/29 06:03:44;;;;;;;8.85;2.30;;;8.40;80.80;;;;;;5065317;28;20036;-70
2022/09/29 06:06:15;;;;;;;2.35;1.67;;;8.40;80.80;;;;;;5069090;28;20031;-70
2022/09/29 06:08:42;;;;;;;18.17;3.07;;;8.40;80.90;;;;;;5068490;28;20493;-70
2022/09/29 06:11:14;;;;;;;2.95;1.73;;;8.40;81.00;;;;;;5068292;28;20446;-70
2022/09/29 06:13:42;;;;;;;25.40;2.20;;;8.40;81.10;;;;;;5059505;28;20165;-70
2022/09/29 06:16:09;;;;;;;3.22;1.77;;;8.50;81.10;;;;;;5069538;28;20064;-70
2022/09/29 06:18:35;;;;;;;5.78;2.28;;;8.50;81.10;;;;;;5033065;28;20031;-70
2022/09/29 06:21:09;;;;;;;2.05;1.65;;;8.50;81.10;;;;;;5067307;28;20036;-70
2022/09/29 06:23:35;;;;;;;2.80;1.30;;;8.50;81.00;;;;;;5067886;28;20098;-71
2022/09/29 06:26:11;;;;;;;3.33;1.42;;;8.60;81.10;;;;;;5051233;28;20395;-70
2022/09/29 06:28:37;;;;;;;2.47;1.73;;;8.60;81.00;;;;;;5050703;28;20371;-70
2022/09/29 06:31:08;;;;;;;4.93;2.30;;;8.60;81.00;;;;;;5067020;28;20111;-70
2022/09/29 06:33:35;;;;;;;7.57;2.50;;;8.60;81.00;;;;;;5068751;28;20032;-70
2022/09/29 06:38:49;;;;;;;3.13;2.28;;;8.70;81.10;;;;;;5069180;28;20106;-76
2022/09/29 06:41:15;;;;;;;6.20;2.92;;;8.70;81.10;;;;;;5064265;28;20041;-76
2022/09/29 06:43:41;;;;;;;3.38;2.65;;;8.80;81.20;;;;;;5069082;28;20468;-77
2022/09/29 06:46:06;;;;;;;4.50;2.97;;;8.80;81.20;;;;;;5047697;28;20465;-71
2022/09/29 06:48:32;;;;;;;3.47;2.83;;;8.90;81.30;;;;;;5050128;28;20037;-71
2022/09/29 06:50:59;;;;;;;4.18;3.03;;;8.90;81.20;;;;;;5066542;28;20116;-76
2022/09/29 06:53:25;;;;;;;5.07;3.03;;;8.90;81.30;;;;;;5066992;28;20020;-77
2022/09/29 06:55:52;;;;;;;3.25;2.50;;;9.00;81.40;;;;;;5067274;28;20024;-71
2022/09/29 06:58:18;;;;;;;16.90;2.85;;;9.00;81.40;;;;;;5067874;28;20040;-71
2022/09/29 07:00:44;;;;;;;4.53;2.92;;;9.00;81.30;;;;;;5067495;28;20040;-71
2022/09/29 07:03:10;;;;;;;2.60;2.40;;;9.10;81.30;;;;;;5064539;28;20114;-70
2022/09/29 07:05:36;;;;;;;2.78;2.42;;;9.10;81.30;;;;;;5066384;28;20064;-72
2022/09/29 07:08:02;;;;;;;4.15;2.67;;;9.10;81.30;;;;;;5049466;28;20040;-70
2022/09/29 07:10:28;;;;;;;3.35;2.83;;;9.20;81.30;;;;;;5049556;28;20037;-76
2022/09/29 07:12:54;;;;;;;5.22;2.45;;;9.30;81.30;;;;;;5068352;28;20488;-76
2022/09/29 07:15:20;;;;;;;2.95;2.53;;;9.30;81.30;;;;;;5047090;28;20036;-71
2022/09/29 07:17:50;;;;;;;2.65;2.45;;;9.40;81.30;;;;;;5062149;28;20029;-77
2022/09/29 07:20:16;;;;;;;2.40;1.95;;;9.40;81.10;;;;;;5046414;28;20063;-77
2022/09/29 07:22:45;;;;;;;3.45;2.70;;;9.40;81.10;;;;;;5066441;28;20056;-77
2022/09/29 07:25:11;;;;;;;5.47;3.75;;;9.50;81.20;;;;;;5063779;28;20028;-77
2022/09/29 07:27:37;;;;;;;5.25;3.45;;;9.50;81.30;;;;;;5064842;28;20043;-77
2022/09/29 07:30:03;;;;;;;35.78;4.18;;;9.50;81.30;;;;;;5044646;28;20399;-77
2022/09/29 07:32:31;;;;;;;22.98;4.70;;;9.50;81.30;;;;;;5067995;28;20119;-77
2022/09/29 07:34:58;;;;;;;4.70;3.55;;;9.50;81.30;;;;;;5063460;28;20143;-77
2022/09/29 07:37:24;;;;;;;5.18;3.60;;;9.50;81.30;;;;;;5063984;28;20090;-77
2022/09/29 07:39:50;;;;;;;9.55;3.63;;;9.50;81.40;;;;;;5033459;28;20036;-77
2022/09/29 07:42:17;;;;;;;4.90;3.25;;;9.60;81.50;;;;;;5068356;28;20368;-78
2022/09/29 07:44:42;;;;;;;3.00;2.70;;;9.60;81.40;;;;;;5063374;28;20036;-77
2022/09/29 07:47:08;;;;;;;4.82;3.25;;;9.70;81.40;;;;;;5067129;28;20053;-77
2022/09/29 07:49:34;;;;;;;7.07;3.92;;;9.80;81.40;;;;;;5049435;28;20423;-77
2022/09/29 07:52:00;;;;;;;4.40;3.38;;;9.70;81.40;;;;;;5068104;28;20090;-78
2022/09/29 07:54:25;;;;;;;3.50;3.20;;;9.60;81.50;;;;;;5068017;28;20024;-78
2022/09/29 07:56:51;;;;;;;5.18;3.55;;;9.70;81.80;;;;;;5068221;28;20055;-78
2022/09/29 07:59:17;;;;;;;8.88;3.85;;;9.70;81.80;;;;;;5050316;28;20116;-78
2022/09/29 08:01:43;;;;;;;16.80;4.05;;;9.80;81.70;;;;;;5071075;28;20391;-72
2022/09/29 08:04:08;;;;;;;4.57;3.78;;;9.90;81.70;;;;;;5071446;28;20531;-72
2022/09/29 08:06:35;;;;;;;5.03;4.38;;;10.00;81.70;;;;;;5071093;28;20475;-72
2022/09/29 08:09:01;;;;;;;5.25;3.92;;;10.00;81.60;;;;;;5071672;28;20074;-71
2022/09/29 08:11:27;;;;;;;4.18;3.35;;;9.90;81.60;;;;;;5053616;28;20028;-71
2022/09/29 08:13:53;;;;;;;9.65;4.40;;;10.00;81.70;;;;;;5053230;28;20032;-72
2022/09/29 08:16:19;;;;;;;5.05;4.13;;;10.00;81.50;;;;;;5067121;28;20021;-72
2022/09/29 08:18:45;;;;;;;10.18;5.32;;;10.10;81.50;;;;;;5053330;28;20021;-72
2022/09/29 08:21:13;;;;;;;6.60;4.75;;;10.20;81.40;;;;;;5034069;28;20041;-72
2022/09/29 08:23:41;;;;;;;4.60;4.20;;;10.30;81.30;;;;;;5065806;28;20033;-78
2022/09/29 08:26:10;;;;;;;7.25;4.80;;;10.30;81.20;;;;;;5068132;28;20546;-78
2022/09/29 08:28:37;;;;;;;6.72;5.07;;;10.40;81.30;;;;;;5070810;28;20097;-78
2022/09/29 08:31:08;;;;;;;7.32;5.00;;;10.40;81.30;;;;;;5047529;28;20036;-72
2022/09/29 08:33:35;;;;;;;7.45;6.00;;;10.50;81.30;;;;;;5070357;28;20048;-78
2022/09/29 08:36:13;;;;;;;9.77;6.18;;;10.50;81.20;;;;;;5069875;28;20021;-78
2022/09/29 08:38:46;;;;;;;9.18;4.93;;;10.60;81.20;;;;;;5069705;28;20052;-79
2022/09/29 08:41:32;;;;;;;8.63;6.53;;;10.70;81.10;;;;;;5059048;28;20368;-72
2022/09/29 08:44:08;;;;;;;7.78;4.68;;;10.80;81.00;;;;;;5070541;28;20028;-72
2022/09/29 08:46:56;;;;;;;7.30;5.18;;;10.80;80.90;;;;;;5070289;28;20136;-72
2022/09/29 08:49:26;;;;;;;7.07;5.80;;;10.80;80.80;;;;;;5059680;28;20064;-72
2022/09/29 08:51:57;;;;;;;6.28;5.00;;;10.90;80.90;;;;;;5063576;28;20020;-78
2022/09/29 08:54:32;;;;;;;7.22;5.93;;;11.00;80.90;;;;;;5069718;28;20426;-79
2022/09/29 08:57:00;;;;;;;10.02;6.28;;;11.10;80.80;;;;;;5051389;28;20021;-78
2022/09/29 08:59:27;;;;;;;9.63;5.57;;;11.10;80.60;;;;;;5070002;28;20036;-78
2022/09/29 09:02:20;;;;;;;9.13;6.18;;;11.10;80.60;;;;;;5068701;28;20026;-78
2022/09/29 09:04:51;;;;;;;11.55;7.50;;;11.10;80.60;;;;;;5068109;28;20024;-78
2022/09/29 09:07:24;;;;;;;10.67;6.67;;;11.10;80.80;;;;;;5070086;28;20048;-72
2022/09/29 09:10:10;;;;;;;13.13;7.75;;;11.20;80.80;;;;;;5069780;28;20023;-71
2022/09/29 09:12:58;;;;;;;9.35;6.30;;;11.30;80.60;;;;;;5066789;28;20483;-71
2022/09/29 09:15:33;;;;;;;11.73;8.38;;;11.40;80.60;;;;;;5066331;28;20033;-69
2022/09/29 09:18:26;;;;;;;11.32;8.50;;;11.50;80.40;;;;;;5051523;28;20029;-69
2022/09/29 09:20:52;;;;;;;;;;;11.60;80.20;;;;;;5062181;28;20027;-69
2022/09/29 09:23:43;;;;;;;12.15;7.78;;;11.60;80.40;;;;;;5068425;28;20011;-69
2022/09/29 09:26:11;;;;;;;11.02;7.85;;;11.60;80.30;;;;;;5065517;28;20149;-77
2022/09/29 09:28:46;;;;;;;11.20;7.40;;;11.70;80.30;;;;;;5069641;28;20769;-70
2022/09/29 09:31:29;;;;;;;17.27;9.50;;;11.90;80.20;;;;;;5068286;28;20050;-71
2022/09/29 09:34:00;;;;;;;13.57;9.13;;;12.00;79.70;;;;;;5069078;28;20059;-71
2022/09/29 09:36:43;;;;;;;12.70;8.80;;;12.00;79.60;;;;;;5058722;28;20104;-71
2022/09/29 09:39:21;;;;;;;12.35;8.02;;;12.10;79.70;;;;;;5068776;28;20028;-71
2022/09/29 09:41:51;;;;;;;12.93;8.77;;;12.20;79.60;;;;;;5062707;28;20044;-78
2022/09/29 09:44:25;;;;;;;11.43;8.45;;;12.20;79.60;;;;;;5064342;28;20035;-78
2022/09/29 09:46:58;;;;;;;14.02;8.00;;;12.30;79.70;;;;;;5061632;28;20451;-79
2022/09/29 09:49:43;;;;;;;12.20;8.13;;;12.50;79.50;;;;;;5066937;28;20036;-79
2022/09/29 09:52:23;;;;;;;11.90;8.35;;;12.80;78.70;;;;;;5060468;28;20017;-77
2022/09/29 09:55:03;;;;;;;11.95;7.95;;;13.00;78.10;;;;;;5064464;28;20025;-78
2022/09/29 09:57:54;;;;;;;14.65;9.32;;;13.20;77.90;;;;;;5068804;28;20025;-77
2022/09/29 10:00:34;;;;;;;11.43;8.18;;;13.50;77.10;;;;;;5068490;28;20036;-77
2022/09/29 10:03:06;;;;;;;13.68;8.43;;;13.70;76.90;;;;;;5066471;28;20020;-77
2022/09/29 10:05:36;;;;;;;15.40;7.60;;;13.80;75.70;;;;;;5065075;28;20060;-77
2022/09/29 10:08:03;;;;;;;10.55;7.35;;;13.90;75.40;;;;;;5069258;28;20180;-77
2022/09/29 10:10:30;;;;;;;13.40;7.38;;;14.10;74.90;;;;;;5066929;28;20032;-70
2022/09/29 10:13:08;;;;;;;11.23;6.13;;;14.10;74.10;;;;;;5061439;28;20029;-69
2022/09/29 10:15:52;;;;;;;6.75;5.38;;;14.20;74.50;;;;;;5065920;28;20024;-78
2022/09/29 10:18:44;;;;;;;10.45;4.60;;;14.40;74.60;;;;;;5046326;28;20552;-70
2022/09/29 10:21:28;;;;;;;7.18;5.25;;;14.70;74.30;;;;;;5054229;28;20025;-80
2022/09/29 10:24:01;;;;;;;8.50;5.68;;;15.00;72.80;;;;;;5061583;28;20602;-80
2022/09/29 10:26:28;;;;;;;8.15;5.32;;;15.10;72.60;;;;;;5043036;28;20036;-70
2022/09/29 10:29:03;;;;;;;6.60;5.00;;;15.30;72.50;;;;;;5064953;28;20451;-70
2022/09/29 10:31:30;;;;;;;6.40;4.90;;;15.50;72.50;;;;;;5057983;28;20037;-70
2022/09/29 10:33:59;;;;;;;6.45;4.85;;;15.70;72.10;;;;;;5056624;28;20022;-80
2022/09/29 10:36:29;;;;;;;6.72;5.28;;;15.90;71.70;;;;;;5040596;28;20028;-71
2022/09/29 10:39:42;;;;;;;6.85;4.57;;;16.10;71.40;;;;;;5062984;28;20373;-80
2022/09/29 10:42:33;;;;;;;4.97;3.93;;;16.30;70.70;;;;;;5064287;28;20028;-80
2022/09/29 10:45:17;;;;;;;6.15;4.18;;;16.50;69.90;;;;;;5058457;28;20036;-80
2022/09/29 10:47:56;;;;;;;5.50;3.97;;;16.60;69.40;;;;;;5061508;28;20052;-70
2022/09/29 10:50:30;;;;;;;11.40;4.05;;;16.80;68.60;;;;;;5057819;28;20044;-70
2022/09/29 10:52:59;;;;;;;5.95;3.75;;;16.90;67.60;;;;;;5059731;28;20017;-70
2022/09/29 10:55:35;;;;;;;5.15;2.78;;;17.00;65.50;;;;;;5043067;28;20025;-71
2022/09/29 10:58:18;;;;;;;4.88;2.80;;;17.00;65.70;;;;;;5053134;28;20383;-71
2022/09/29 11:00:48;;;;;;;2.47;2.10;;;17.00;66.00;;;;;;5043917;28;20037;-70
2022/09/29 11:03:21;;;;;;;3.58;2.05;;;17.20;65.90;;;;;;5040153;28;20041;-70
2022/09/29 11:06:13;;;;;;;3.25;2.20;;;17.30;64.30;;;;;;5062301;28;20041;-81
2022/09/29 11:09:05;;;;;;;3.45;2.75;;;17.40;64.40;;;;;;5037225;28;20032;-81
2022/09/29 11:11:35;;;;;;;3.33;2.22;;;17.60;63.90;;;;;;5064553;28;20029;-81
2022/09/29 11:14:01;;;;;;;3.33;2.30;;;17.80;62.70;;;;;;5050536;28;20021;-81
2022/09/29 11:16:28;;;;;;;4.55;2.28;;;17.90;62.10;;;;;;5050941;28;20032;-81
2022/09/29 11:18:59;;;;;;;3.40;2.17;;;17.90;62.30;;;;;;5040931;28;20111;-81
2022/09/29 11:21:59;;;;;;;7.03;1.77;;;18.00;61.50;;;;;;5055512;28;20469;-80
2022/09/29 11:24:49;;;;;;;1.33;1.23;;;18.10;61.50;;;;;;5064796;28;20032;-71
2022/09/29 11:27:53;;;;;;;3.63;2.15;;;18.30;60.90;;;;;;5062469;28;20372;-80
2022/09/29 11:30:48;;;;;;;2.10;1.73;;;18.60;60.90;;;;;;5044010;28;20036;-79
2022/09/29 11:33:26;;;;;;;2.20;1.50;;;18.90;60.60;;;;;;5042027;28;20032;-79
2022/09/29 11:36:07;;;;;;;1.60;1.25;;;19.10;59.00;;;;;;5069227;28;20023;-69
2022/09/29 11:38:55;;;;;;;2.25;1.35;;;19.10;59.80;;;;;;5054274;28;20086;-69
2022/09/29 11:41:30;;;;;;;1.50;1.40;;;19.30;59.50;;;;;;5060356;28;20539;-69
2022/09/29 11:44:21;;;;;;;1.45;1.35;;;19.60;57.90;;;;;;5072027;28;20028;-69
2022/09/29 11:47:14;;;;;;;2.35;1.52;;;19.90;57.70;;;;;;5072149;28;20058;-69
2022/09/29 11:50:07;;;;;;;1.58;1.38;;;20.20;58.10;;;;;;5048071;28;20037;-69
2022/09/29 11:52:50;;;;;;;1.52;1.13;;;20.40;56.40;;;;;;5047888;28;20127;-69
2022/09/29 11:55:29;;;;;;;2.42;1.17;;;20.40;54.10;;;;;;5043270;28;20032;-69
2022/09/29 11:58:00;;;;;;;2.35;1.70;;;20.10;53.70;;;;;;5068843;28;20078;-70
2022/09/29 12:01:01;;;;;;;4.70;2.23;;;20.10;55.20;;;;;;5070778;28;20040;-80
2022/09/29 12:03:49;;;;;;;2.20;1.55;;;20.30;53.80;;;;;;5026690;28;20354;-80
2022/09/29 12:06:46;;;;;;;1.65;1.48;;;20.40;54.50;;;;;;5065872;28;20028;-70
2022/09/29 12:09:36;;;;;;;1.95;1.30;;;20.40;52.40;;;;;;5064807;28;20024;-80
2022/09/29 12:12:32;;;;;;;1.88;1.40;;;20.60;53.10;;;;;;5040000;28;20033;-80
2022/09/29 12:15:13;;;;;;;2.80;1.85;;;20.60;51.40;;;;;;5043482;28;20029;-80
2022/09/29 12:17:44;;;;;;;1.38;1.00;;;20.40;52.20;;;;;;5071844;28;20492;-80
2022/09/29 12:20:29;;;;;;;3.22;2.22;;;20.20;52.40;;;;;;5061308;28;20028;-80
2022/09/29 12:23:05;;;;;;;1.85;1.15;;;20.20;53.20;;;;;;5059624;28;20377;-70
2022/09/29 12:25:39;;;;;;;3.20;1.75;;;20.30;53.40;;;;;;5056198;28;20027;-71
2022/09/29 12:28:14;;;;;;;1.55;1.27;;;20.50;53.00;;;;;;5061068;28;20154;-81
2022/09/29 12:30:51;;;;;;;0.98;0.88;;;20.60;52.50;;;;;;5052362;28;20476;-81
2022/09/29 12:33:23;;;;;;;1.30;1.10;;;20.70;52.40;;;;;;5068548;28;20029;-81
2022/09/29 12:39:28;;;;;;;1.42;1.17;;;20.90;51.30;;;;;;5065929;28;20105;-80
2022/09/29 12:42:14;;;;;;;0.95;0.95;;;21.00;51.70;;;;;;5059178;28;20506;-81
2022/09/29 12:45:21;;;;;;;1.08;0.85;;;21.00;51.40;;;;;;5030348;28;20031;-81
2022/09/29 12:48:23;;;;;;;1.35;1.08;;;20.70;51.00;;;;;;5068400;28;20044;-70
2022/09/29 12:51:25;;;;;;;1.40;1.30;;;20.10;52.40;;;;;;5048370;28;20036;-70
2022/09/29 12:54:14;;;;;;;1.10;1.00;;;19.90;53.00;;;;;;5062171;28;20024;-69
2022/09/29 12:57:10;;;;;;;1.33;1.23;;;19.60;53.00;;;;;;5051952;28;20017;-69
2022/09/29 12:59:55;;;;;;;3.05;1.23;;;19.30;53.80;;;;;;5069292;28;20486;-69
2022/09/29 13:02:40;;;;;;;1.80;0.90;;;19.30;54.50;;;;;;5061479;28;20021;-69
2022/09/29 13:05:40;;;;;;;1.73;0.77;;;19.50;54.30;;;;;;5064513;28;20028;-69
2022/09/29 13:08:11;;;;;;;1.40;1.00;;;19.60;53.60;;;;;;5033596;28;20048;-69
2022/09/29 13:11:02;;;;;;;0.90;0.68;;;19.90;53.50;;;;;;5048409;28;20479;-69
2022/09/29 13:13:31;;;;;;;1.33;1.05;;;20.10;52.50;;;;;;5063347;28;20028;-69
2022/09/29 13:16:33;;;;;;;1.05;1.00;;;20.20;51.70;;;;;;5069140;28;20021;-83
2022/09/29 13:18:59;;;;;;;1.65;1.25;;;20.30;50.60;;;;;;5060910;28;20369;-69
2022/09/29 13:22:14;;;;;;;2.97;1.38;;;20.20;49.90;;;;;;5064452;28;20066;-69
2022/09/29 13:24:53;;;;;;;2.35;1.55;;;20.10;50.50;;;;;;5061218;28;20103;-83
2022/09/29 13:27:29;;;;;;;1.25;0.90;;;20.10;50.10;;;;;;5057018;28;20133;-83
2022/09/29 13:30:10;;;;;;;1.13;0.77;;;20.30;49.50;;;;;;5060615;28;20035;-82